ADDS METAR Data INFO
IDs: Format: Raw Decoded Include TAF

Data at: 2041 UTC 20 Jul 2018

KPGV 202030Z AUTO 11010G15KT 10SM SCT034 SCT040 BKN047 28/20 A3003 RMK AO2
KPGV 202010Z AUTO 10008KT 10SM CLR 28/20 A3003 RMK AO2
KPGV 201950Z AUTO 11011G15KT 10SM CLR 28/20 A3004 RMK AO2
KPGV 201930Z AUTO 12010G15KT 10SM SCT041 SCT065 28/20 A3004 RMK AO2
KPGV 201910Z AUTO 10010G15KT 10SM CLR 28/20 A3005 RMK AO2
KPGV 201850Z AUTO 09012G16KT 10SM SCT032 SCT046 SCT050 28/20 A3006 RMK AO2
KPGV 201830Z AUTO 08005G08KT 10SM SCT032 SCT050 BKN055 27/21 A3006 RMK AO2
KPGV 201810Z AUTO 07007KT 10SM SCT036 27/21 A3006 RMK AO2
KPGV 201750Z AUTO 10005KT 10SM SCT002 SCT040 SCT047 27/22 A3007 RMK AO2
KPGV 201730Z AUTO 10009KT 10SM -RA SCT002 BKN032 OVC048 25/22 A3007 RMK AO2
KPGV 201710Z AUTO 09008G16KT 7SM RA BKN035 28/21 A3007 RMK AO2
KPGV 201650Z AUTO 10008G14KT 10SM SCT035 29/20 A3008 RMK AO2
KPGV 201630Z AUTO 09011G16KT 10SM SCT055 28/20 A3008 RMK AO2
KPGV 201610Z AUTO 10009KT 10SM SCT030 SCT055 28/20 A3009 RMK AO2
KPGV 201550Z AUTO 10010G16KT 10SM SCT030 SCT037 SCT065 28/20 A3009 RMK AO2
KPGV 201530Z AUTO 09010KT 10SM SCT030 SCT065 28/20 A3010 RMK AO2
KPGV 201510Z AUTO 10007KT 10SM CLR 28/21 A3010 RMK AO2
KPGV 201450Z AUTO 10007G14KT 10SM CLR 27/20 A3010 RMK AO2
KPGV 201430Z AUTO 09008KT 063V123 10SM CLR 27/20 A3010 RMK AO2
KPGV 201410Z AUTO 09010KT 10SM SCT065 27/20 A3009 RMK AO2
KPGV 201350Z AUTO 09008KT 7SM SCT065 27/20 A3010 RMK AO2
KPGV 201330Z AUTO 08007KT 10SM CLR 27/20 A3009 RMK AO2
KPGV 201310Z AUTO 09007KT 10SM CLR 25/20 A3009 RMK AO2
KPGV 201250Z AUTO 09007KT 7SM CLR 25/20 A3008 RMK AO2
KPGV 201230Z AUTO 09005KT 10SM CLR 23/20 A3009 RMK AO2
KPGV 201210Z AUTO 09009KT 10SM CLR 23/20 A3008 RMK AO2
KPGV 201150Z AUTO 09006KT 10SM SCT030 23/20 A3008 RMK AO2
KPGV 201130Z AUTO 09006KT 10SM SCT030 SCT060 22/20 A3008 RMK AO2
KPGV 201110Z AUTO 09004KT 10SM SCT055 22/19 A3008 RMK AO2
KPGV 201050Z AUTO 07003KT 10SM CLR 21/19 A3008 RMK AO2
KPGV 201030Z AUTO 00000KT 10SM CLR 21/20 A3008 RMK AO2
KPGV 201010Z AUTO 07003KT 10SM CLR 21/20 A3007 RMK AO2
KPGV 200950Z AUTO 00000KT 10SM CLR 20/20 A3007 RMK AO2
KPGV 200930Z AUTO 00000KT 10SM CLR 20/20 A3007 RMK AO2
KPGV 200910Z AUTO 00000KT 10SM CLR 20/20 A3007 RMK AO2
KPGV 200850Z AUTO 10003KT 10SM CLR 20/20 A3007 RMK AO2
KPGV 200830Z AUTO 00000KT 10SM CLR 20/20 A3007 RMK AO2
KPGV 200810Z AUTO 00000KT 10SM CLR 20/20 A3008 RMK AO2
KPGV 200750Z AUTO 00000KT 10SM CLR 20/19 A3008 RMK AO2
KPGV 200730Z AUTO 00000KT 10SM CLR 20/19 A3008 RMK AO2
KPGV 200710Z AUTO 09003KT 10SM CLR 20/19 A3007 RMK AO2
KPGV 200650Z AUTO 09003KT 10SM CLR 20/19 A3008 RMK AO2
KPGV 200630Z AUTO 10003KT 10SM CLR 21/19 A3009 RMK AO2
KPGV 200610Z AUTO 00000KT 10SM CLR 21/19 A3009 RMK AO2
KPGV 200550Z AUTO 10003KT 10SM CLR 21/18 A3009 RMK AO2
KPGV 200530Z AUTO 10003KT 10SM CLR 21/18 A3009 RMK AO2
KPGV 200510Z AUTO 00000KT 10SM CLR 21/18 A3010 RMK AO2
KPGV 200450Z AUTO 00000KT 10SM CLR 22/17 A3010 RMK AO2
KPGV 200430Z AUTO 00000KT 10SM CLR 21/17 A3010 RMK AO2
KPGV 200410Z AUTO 10003KT 10SM CLR 22/17 A3010 RMK AO2
KPGV 200350Z AUTO 11003KT 10SM CLR 22/17 A3010 RMK AO2
KPGV 200250Z AUTO 00000KT 10SM CLR 23/17 A3010 RMK AO2
KPGV 200230Z AUTO 00000KT 10SM CLR 23/17 A3009 RMK AO2
KPGV 200210Z AUTO 09003KT 10SM CLR 25/17 A3009 RMK AO2
KPGV 200150Z AUTO 16003KT 10SM CLR 25/17 A3008 RMK AO2
KPGV 200130Z AUTO 13004KT 10SM CLR 26/17 A3008 RMK AO2
KPGV 200110Z AUTO 13004KT 10SM CLR 26/17 A3007 RMK AO2
KPGV 200050Z AUTO 13003KT 10SM CLR 27/17 A3006 RMK AO2
KPGV 200030Z AUTO 12003KT 10SM CLR 27/16 A3006 RMK AO2
KPGV 200010Z AUTO 13006KT 10SM CLR 28/16 A3005 RMK AO2
KPGV 192350Z AUTO 11005KT 10SM SCT080 28/16 A3005 RMK AO2
KPGV 192330Z AUTO 13007KT 10SM SCT080 29/16 A3005 RMK AO2
KPGV 192250Z AUTO 13006KT 10SM SCT080 30/15 A3004 RMK AO2
KPGV 192230Z AUTO 12008KT 7SM CLR 30/17 A3004 RMK AO2
KPGV 192210Z AUTO 11009KT 10SM CLR 30/16 A3004 RMK AO2
KPGV 192150Z AUTO 10010KT 10SM CLR 30/17 A3004 RMK AO2
KPGV 192130Z AUTO 09011G14KT 10SM CLR 31/16 A3004 RMK AO2
KPGV 192110Z AUTO 13006KT 10SM CLR 31/16 A3004 RMK AO2
KPGV 192050Z AUTO 11007KT 10SM CLR 31/17 A3004 RMK AO2
KPGV 192030Z AUTO 10007KT 10SM SCT060 30/16 A3005 RMK AO2
KPGV 192010Z AUTO 07009KT 10SM SCT060 SCT075 30/16 A3005 RMK AO2
KPGV 191950Z AUTO 08007KT 10SM SCT060 SCT075 30/15 A3006 RMK AO2
KPGV 191930Z AUTO 15003KT 10SM CLR 31/15 A3006 RMK AO2
KPGV 191910Z AUTO 00000KT 10SM CLR 31/14 A3006 RMK AO2
KPGV 191850Z AUTO 21003KT 7SM CLR 31/14 A3006 RMK AO2
KPGV 191830Z AUTO 09004KT 10SM CLR 31/13 A3007 RMK AO2
KPGV 191810Z AUTO 11007KT 093V163 10SM CLR 31/14 A3008 RMK AO2
KPGV 191750Z AUTO 11005KT 10SM SCT065 30/13 A3008 RMK AO2
KPGV 191730Z AUTO 13009KT 10SM CLR 30/13 A3008 RMK AO2
KPGV 191710Z AUTO 13008G15KT 10SM CLR 31/14 A3008 RMK AO2
KPGV 191650Z AUTO 14011G15KT 10SM CLR 30/13 A3008 RMK AO2
KPGV 191630Z AUTO 13009G14KT 10SM CLR 30/12 A3009 RMK AO2
KPGV 191610Z AUTO 13004KT 10SM CLR 30/12 A3008 RMK AO2
KPGV 191550Z AUTO 08004KT 10SM CLR 30/13 A3008 RMK AO2
KPGV 191510Z AUTO 08006KT 063V123 10SM CLR 29/13 A3009 RMK AO2
KPGV 191450Z AUTO 06007KT 10SM CLR 28/14 A3008 RMK AO2
KPGV 191430Z AUTO 09005KT 7SM CLR 28/15 A3008 RMK AO2
KPGV 191410Z AUTO 09005KT 10SM CLR 28/16 A3008 RMK AO2
KPGV 191350Z AUTO 06003KT 10SM CLR 27/17 A3008 RMK AO2
KPGV 191310Z AUTO 03003KT 10SM CLR 25/18 A3007 RMK AO2
KPGV 191230Z AUTO 36003KT 10SM CLR 22/20 A3006 RMK AO2
KPGV 191150Z AUTO 36003KT 10SM CLR 20/20 A3006 RMK AO2
KPGV 191130Z AUTO 00000KT 10SM CLR 19/19 A3005 RMK AO2
KPGV 191110Z AUTO 00000KT 7SM CLR 18/18 A3004 RMK AO2
KPGV 191050Z AUTO 00000KT 7SM CLR 18/18 A3004 RMK AO2
KPGV 191030Z AUTO 00000KT 5SM BR CLR 18/18 A3003 RMK AO2
KPGV 191010Z AUTO 00000KT 7SM CLR 18/18 A3003 RMK AO2
KPGV 190950Z AUTO 00000KT 7SM CLR 18/18 A3002 RMK AO2
KPGV 190930Z AUTO 00000KT 7SM CLR 19/18 A3002 RMK AO2
KPGV 190910Z AUTO 00000KT 7SM CLR 18/18 A3002 RMK AO2
KPGV 190850Z AUTO 00000KT 7SM CLR 18/18 A3001 RMK AO2